Time;durP1;ratioP1;P1;durP2;ratioP2;P2;SDS_P1;SDS_P2;PMS_P1;PMS_P2;Temp;Humidity;BMP_temperature;BMP_pressure;BME280_temperature;BME280_humidity;BME280_pressure;Samples;Min_cycle;Max_cycle;Signal;HPM_P1;HPM_P2
2022/12/03 00:00:00;;;;;;;54.90;22.77;;;3.70;99.90;;;;;;6225620;28;20499;-80
2022/12/03 00:03:02;;;;;;;46.30;20.90;;;3.70;99.90;;;;;;6227025;28;20049;-80
2022/12/03 00:06:04;;;;;;;48.20;21.80;;;3.80;99.90;;;;;;6226652;28;20072;-80
2022/12/03 00:09:06;;;;;;;41.97;20.02;;;3.70;99.90;;;;;;6226563;28;20138;-81
2022/12/03 00:12:07;;;;;;;46.47;22.30;;;3.70;99.90;;;;;;6230784;28;20046;-81
2022/12/03 00:15:11;;;;;;;53.85;21.65;;;3.70;99.90;;;;;;6238194;28;20124;-80
2022/12/03 00:18:13;;;;;;;57.90;23.60;;;3.80;99.90;;;;;;6234866;28;20558;-81
2022/12/03 00:21:15;;;;;;;42.92;20.83;;;3.80;99.90;;;;;;6232574;28;20042;-81
2022/12/03 00:24:16;;;;;;;36.90;19.98;;;3.80;99.90;;;;;;6231899;28;20419;-80
2022/12/03 00:27:18;;;;;;;40.00;20.75;;;3.80;99.90;;;;;;6232162;28;20057;-80
2022/12/03 00:30:21;;;;;;;51.63;23.13;;;3.80;99.90;;;;;;6230995;28;20741;-80
2022/12/03 00:33:23;;;;;;;45.13;21.48;;;3.80;99.90;;;;;;6221251;28;20046;-80
2022/12/03 00:36:24;;;;;;;47.40;23.50;;;3.80;99.90;;;;;;6217308;28;20517;-80
2022/12/03 00:39:26;;;;;;;42.15;20.58;;;3.80;99.90;;;;;;6227805;28;20061;-81
2022/12/03 00:42:28;;;;;;;42.10;21.10;;;3.80;99.90;;;;;;6207969;28;20049;-81
2022/12/03 00:45:31;;;;;;;47.75;20.35;;;3.90;99.90;;;;;;6226172;28;20427;-81
2022/12/03 00:48:33;;;;;;;42.75;20.38;;;3.90;99.90;;;;;;6230466;28;20050;-81
2022/12/03 00:51:35;;;;;;;46.78;22.45;;;3.90;99.90;;;;;;6227449;28;20046;-80
2022/12/03 00:54:37;;;;;;;37.15;20.35;;;3.90;99.90;;;;;;6206390;28;20049;-82
2022/12/03 00:57:39;;;;;;;47.03;24.65;;;3.90;99.90;;;;;;6227136;28;20060;-80
2022/12/03 01:00:42;;;;;;;42.70;21.13;;;4.00;99.90;;;;;;6231285;28;20044;-81
2022/12/03 01:03:44;;;;;;;58.05;23.27;;;4.00;99.90;;;;;;6240835;28;20133;-83
2022/12/03 01:06:45;;;;;;;49.47;23.02;;;4.00;99.90;;;;;;6239092;28;20109;-85
2022/12/03 01:09:47;;;;;;;41.28;21.38;;;4.00;99.90;;;;;;6238576;28;20450;-85
2022/12/03 01:12:49;;;;;;;57.40;23.33;;;4.00;99.90;;;;;;6242771;28;20563;-82
2022/12/03 01:15:52;;;;;;;54.50;21.65;;;4.00;99.90;;;;;;6241693;28;20073;-84
2022/12/03 01:18:54;;;;;;;51.63;23.08;;;4.00;99.90;;;;;;6247249;28;20462;-83
2022/12/03 01:21:55;;;;;;;51.72;23.70;;;4.00;99.90;;;;;;6242539;28;20073;-81
2022/12/03 01:24:57;;;;;;;45.20;24.25;;;4.00;99.90;;;;;;6241677;28;20069;-85
2022/12/03 01:27:59;;;;;;;68.53;27.13;;;4.10;99.90;;;;;;6241163;28;20065;-81
2022/12/03 01:34:21;;;;;;;60.90;22.98;;;4.10;99.90;;;;;;6242694;28;20501;-82
2022/12/03 01:37:25;;;;;;;52.03;24.80;;;4.10;99.90;;;;;;6236332;28;20512;-82
2022/12/03 01:40:27;;;;;;;45.20;21.80;;;4.10;99.90;;;;;;6206872;28;20210;-82
2022/12/03 01:43:29;;;;;;;42.13;21.55;;;4.10;99.90;;;;;;6192881;28;20051;-82
2022/12/03 01:46:38;;;;;;;35.63;21.08;;;4.10;99.90;;;;;;6192727;28;20141;-82
2022/12/03 01:49:42;;;;;;;45.22;20.30;;;4.20;99.90;;;;;;6212145;28;20050;-83
2022/12/03 01:52:44;;;;;;;45.92;22.23;;;4.20;99.90;;;;;;6218807;28;20109;-82
2022/12/03 01:55:46;;;;;;;43.40;21.83;;;4.20;99.90;;;;;;6218055;28;20058;-82
2022/12/03 01:58:48;;;;;;;56.63;24.17;;;4.20;99.90;;;;;;6217471;28;20058;-83
2022/12/03 02:01:51;;;;;;;48.30;22.58;;;4.20;99.90;;;;;;6239708;28;20109;-82
2022/12/03 02:04:54;;;;;;;50.40;24.55;;;4.20;99.90;;;;;;6241634;28;20054;-83
2022/12/03 02:07:56;;;;;;;47.03;20.63;;;4.20;99.90;;;;;;6240305;28;20113;-83
2022/12/03 02:11:01;;;;;;;40.30;21.80;;;4.20;99.90;;;;;;6242135;28;20056;-82
2022/12/03 02:14:07;;;;;;;46.05;23.95;;;4.20;99.90;;;;;;6241670;28;20072;-83
2022/12/03 02:17:11;;;;;;;50.80;21.80;;;4.20;99.90;;;;;;6243133;28;20046;-82
2022/12/03 02:20:14;;;;;;;47.00;22.50;;;4.20;99.90;;;;;;6260182;28;20056;-82
2022/12/03 02:23:25;;;;;;;45.63;21.85;;;4.20;99.90;;;;;;6243683;28;20052;-82
2022/12/03 02:26:29;;;;;;;43.58;22.90;;;4.20;99.90;;;;;;6213423;28;20058;-80
2022/12/03 02:29:31;;;;;;;50.35;23.70;;;4.20;99.90;;;;;;6184392;28;20079;-81
2022/12/03 02:32:32;;;;;;;51.67;22.45;;;4.20;99.90;;;;;;6180591;28;20043;-81
2022/12/03 02:35:37;;;;;;;48.70;22.60;;;4.20;99.90;;;;;;6181411;28;20078;-81
2022/12/03 02:38:39;;;;;;;47.33;24.02;;;4.20;99.90;;;;;;6203340;28;20061;-81
2022/12/03 02:45:04;;;;;;;48.17;21.35;;;4.20;99.90;;;;;;6207676;28;20050;-83
2022/12/03 02:48:11;;;;;;;50.83;23.17;;;4.20;99.90;;;;;;6216226;28;20058;-83
2022/12/03 02:51:13;;;;;;;50.15;23.83;;;4.20;99.90;;;;;;6219587;28;20053;-84
2022/12/03 02:54:14;;;;;;;50.17;24.13;;;4.20;99.90;;;;;;6215871;28;20050;-83
2022/12/03 02:57:18;;;;;;;48.75;25.55;;;4.20;99.90;;;;;;6215326;28;20177;-85
2022/12/03 03:00:21;;;;;;;52.10;24.73;;;4.10;99.90;;;;;;6216611;28;20048;-84
2022/12/03 03:03:27;;;;;;;60.50;25.60;;;4.10;99.90;;;;;;6217148;28;20061;-83
2022/12/03 03:06:28;;;;;;;52.92;23.10;;;4.10;99.90;;;;;;6217334;28;20047;-83
2022/12/03 03:09:31;;;;;;;50.53;23.98;;;4.00;99.90;;;;;;6215821;28;20082;-83
2022/12/03 03:12:34;;;;;;;45.55;20.50;;;3.90;99.90;;;;;;6219566;28;20119;-85
2022/12/03 03:15:36;;;;;;;45.40;22.42;;;3.80;99.90;;;;;;6227870;28;20128;-86
2022/12/03 03:18:38;;;;;;;43.08;20.98;;;3.70;99.90;;;;;;6254065;28;20109;-84
2022/12/03 03:21:40;;;;;;;46.33;22.67;;;3.60;99.90;;;;;;6226711;28;20137;-83
2022/12/03 03:24:42;;;;;;;47.60;21.45;;;3.50;99.90;;;;;;6220315;28;20046;-83
2022/12/03 03:27:45;;;;;;;41.45;20.77;;;3.50;99.90;;;;;;6225250;28;20088;-83
2022/12/03 03:30:47;;;;;;;46.40;22.88;;;3.40;99.90;;;;;;6240093;28;20188;-84
2022/12/03 03:33:50;;;;;;;47.60;22.92;;;3.40;99.90;;;;;;6223645;28;20058;-84
2022/12/03 03:36:52;;;;;;;50.03;23.98;;;3.50;99.90;;;;;;6219274;28;20049;-83
2022/12/03 03:39:55;;;;;;;45.97;23.08;;;3.50;99.90;;;;;;6215498;28;20138;-82
2022/12/03 03:42:59;;;;;;;48.17;22.98;;;3.50;99.90;;;;;;6216433;28;20381;-83
2022/12/03 03:46:03;;;;;;;45.75;21.65;;;3.60;99.90;;;;;;6213704;28;20097;-83
2022/12/03 03:49:06;;;;;;;51.50;24.60;;;3.60;99.90;;;;;;6213675;28;20172;-82
2022/12/03 03:52:10;;;;;;;55.63;25.60;;;3.60;99.90;;;;;;6217201;28;20089;-83
2022/12/03 03:55:12;;;;;;;46.40;27.58;;;3.60;99.90;;;;;;6212710;28;20144;-82
2022/12/03 03:58:16;;;;;;;44.67;23.58;;;3.70;99.90;;;;;;6238137;28;20137;-82
2022/12/03 04:01:18;;;;;;;49.95;23.65;;;3.70;99.90;;;;;;6239384;28;20128;-84
2022/12/03 04:04:22;;;;;;;43.65;22.63;;;3.70;99.90;;;;;;6237065;28;20573;-83
2022/12/03 04:07:24;;;;;;;49.08;24.70;;;3.80;99.90;;;;;;6237014;28;20482;-83
2022/12/03 04:13:47;;;;;;;44.17;23.10;;;3.80;99.90;;;;;;6236979;28;20049;-83
2022/12/03 04:16:49;;;;;;;53.30;24.83;;;3.80;99.90;;;;;;6251528;22;20100;-84
2022/12/03 04:19:51;;;;;;;39.85;22.23;;;3.70;99.90;;;;;;6221093;28;20571;-85
2022/12/03 04:22:51;;;;;;;44.38;20.77;;;3.70;99.90;;;;;;6229752;28;20041;-84
2022/12/03 04:29:14;;;;;;;47.13;21.63;;;3.60;99.90;;;;;;6272946;28;20115;-83
2022/12/03 04:35:44;;;;;;;50.45;23.25;;;3.60;99.90;;;;;;6272813;28;20045;-84
2022/12/03 04:38:46;;;;;;;45.90;21.20;;;3.60;99.90;;;;;;6272982;28;20128;-84
2022/12/03 04:41:47;;;;;;;52.15;23.20;;;3.60;99.90;;;;;;6272864;28;20041;-84
2022/12/03 04:44:50;;;;;;;45.35;24.52;;;3.70;99.90;;;;;;6273936;28;20463;-84
2022/12/03 04:47:52;;;;;;;52.42;24.00;;;3.70;99.90;;;;;;6272328;28;20041;-84
2022/12/03 04:50:54;;;;;;;45.53;24.42;;;3.70;99.90;;;;;;6272661;28;20134;-84
2022/12/03 04:53:56;;;;;;;52.05;23.20;;;3.70;99.90;;;;;;6260766;28;20048;-85
2022/12/03 04:56:57;;;;;;;49.03;24.23;;;3.70;99.90;;;;;;6272830;28;20041;-82
2022/12/03 05:00:01;;;;;;;43.10;21.95;;;3.70;99.90;;;;;;6276422;28;20049;-86
2022/12/03 05:03:02;;;;;;;47.40;23.95;;;3.70;99.90;;;;;;6277101;28;20402;-85
2022/12/03 05:06:04;;;;;;;48.63;24.58;;;3.80;99.90;;;;;;6276706;28;20111;-83
2022/12/03 05:09:06;;;;;;;48.85;23.27;;;3.80;99.90;;;;;;6275485;28;20051;-82
2022/12/03 05:12:08;;;;;;;55.30;23.83;;;3.80;99.90;;;;;;6277259;28;20242;-84
2022/12/03 05:15:11;;;;;;;51.40;24.75;;;3.80;99.90;;;;;;6277231;28;20417;-85
2022/12/03 05:18:13;;;;;;;44.75;24.52;;;3.80;99.90;;;;;;6276398;28;20059;-85
2022/12/03 05:21:15;;;;;;;48.08;24.23;;;3.80;99.90;;;;;;6259614;28;20045;-84
2022/12/03 05:24:18;;;;;;;43.70;23.60;;;3.90;99.90;;;;;;6273997;28;20048;-86
2022/12/03 05:27:20;;;;;;;54.80;23.80;;;3.80;99.90;;;;;;6280980;28;20053;-83
2022/12/03 05:30:23;;;;;;;43.38;24.02;;;3.80;99.90;;;;;;6278243;28;20612;-83
2022/12/03 05:33:25;;;;;;;51.53;25.73;;;3.80;99.90;;;;;;6257708;28;20045;-81
2022/12/03 05:36:27;;;;;;;50.30;20.50;;;3.80;99.90;;;;;;6252452;28;20071;-83
2022/12/03 05:39:29;;;;;;;44.70;23.83;;;3.80;99.90;;;;;;6255426;28;20639;-83
2022/12/03 05:45:51;;;;;;;45.33;22.13;;;3.80;99.90;;;;;;6251883;28;20038;-83
2022/12/03 05:48:53;;;;;;;49.78;24.10;;;3.80;99.90;;;;;;6251365;28;20418;-84
2022/12/03 05:51:54;;;;;;;51.60;25.45;;;3.80;99.90;;;;;;6256854;28;20051;-84
2022/12/03 05:54:56;;;;;;;48.90;25.65;;;3.80;99.90;;;;;;6268816;28;20048;-83
2022/12/03 05:57:58;;;;;;;52.85;23.05;;;3.80;99.90;;;;;;6252524;28;20055;-83
2022/12/03 06:01:01;;;;;;;39.65;22.23;;;3.80;99.90;;;;;;6252420;28;20056;-82
2022/12/03 06:04:03;;;;;;;44.53;22.63;;;3.80;99.90;;;;;;6263211;28;20055;-82
2022/12/03 06:07:04;;;;;;;50.35;24.70;;;3.70;99.90;;;;;;6272352;28;20077;-83
2022/12/03 06:10:09;;;;;;;50.00;24.25;;;3.70;99.90;;;;;;6257636;28;20049;-85
2022/12/03 06:13:10;;;;;;;47.78;22.45;;;3.60;99.90;;;;;;6255540;28;20052;-83
2022/12/03 06:16:14;;;;;;;49.88;23.33;;;3.50;99.90;;;;;;6252568;28;20059;-85
2022/12/03 06:19:15;;;;;;;47.63;21.40;;;3.40;99.90;;;;;;6254489;28;20058;-82
2022/12/03 06:22:17;;;;;;;39.75;20.67;;;3.30;99.90;;;;;;6236340;28;20041;-85
2022/12/03 06:25:19;;;;;;;47.33;21.42;;;3.20;99.90;;;;;;6237530;28;20060;-84
2022/12/03 06:28:21;;;;;;;45.38;21.40;;;3.10;99.90;;;;;;6237912;28;20073;-85
2022/12/03 06:31:24;;;;;;;48.70;22.98;;;3.10;99.90;;;;;;6252536;28;20050;-83
2022/12/03 06:34:25;;;;;;;55.28;24.55;;;3.00;99.90;;;;;;6252060;28;20057;-83
2022/12/03 06:37:27;;;;;;;58.58;26.40;;;2.90;99.90;;;;;;6233065;28;20045;-82
2022/12/03 06:40:29;;;;;;;52.60;23.00;;;2.90;99.90;;;;;;6228574;28;20052;-84
2022/12/03 06:43:31;;;;;;;61.75;26.25;;;2.90;99.90;;;;;;6228415;28;20046;-85
2022/12/03 06:46:34;;;;;;;55.05;24.58;;;2.80;99.90;;;;;;6228535;28;20046;-84
2022/12/03 06:49:35;;;;;;;63.78;27.65;;;2.70;99.90;;;;;;6223825;28;20052;-83
2022/12/03 06:52:37;;;;;;;54.90;25.50;;;2.70;99.90;;;;;;6224119;28;20070;-84
2022/12/03 06:55:39;;;;;;;59.30;28.50;;;2.70;99.90;;;;;;6228107;28;20042;-85
2022/12/03 06:58:41;;;;;;;59.83;25.58;;;2.70;99.90;;;;;;6248629;28;20049;-84
2022/12/03 07:01:44;;;;;;;59.67;25.67;;;2.70;99.90;;;;;;6249562;28;20037;-84
2022/12/03 07:04:45;;;;;;;53.92;25.35;;;2.60;99.90;;;;;;6239786;28;20050;-85
2022/12/03 07:07:50;;;;;;;59.35;24.50;;;2.60;99.90;;;;;;6226352;28;20482;-85
2022/12/03 07:10:52;;;;;;;70.80;26.40;;;2.60;99.90;;;;;;6228100;28;20229;-85
2022/12/03 07:13:54;;;;;;;59.35;28.58;;;2.60;99.90;;;;;;6228739;28;20096;-84
2022/12/03 07:16:57;;;;;;;70.97;31.50;;;2.60;99.90;;;;;;6227975;28;20042;-84
2022/12/03 07:19:59;;;;;;;70.57;29.10;;;2.50;99.90;;;;;;6226690;28;20060;-82
2022/12/03 07:23:00;;;;;;;59.97;26.40;;;2.50;99.90;;;;;;6223330;28;20042;-85
2022/12/03 07:26:02;;;;;;;70.00;28.90;;;2.50;99.90;;;;;;6227536;28;20046;-84
2022/12/03 07:29:04;;;;;;;74.30;28.85;;;2.50;99.90;;;;;;6226198;28;20050;-84
2022/12/03 07:32:07;;;;;;;68.53;30.33;;;2.50;99.90;;;;;;6227362;28;20056;-82
2022/12/03 07:35:09;;;;;;;74.07;28.35;;;2.50;99.90;;;;;;6227184;28;20049;-84
2022/12/03 07:38:11;;;;;;;78.45;32.15;;;2.50;99.90;;;;;;6226628;28;20045;-84
2022/12/03 07:41:13;;;;;;;62.85;29.88;;;2.40;99.90;;;;;;6228556;28;20052;-84
2022/12/03 07:44:15;;;;;;;69.28;30.98;;;2.40;99.90;;;;;;6228042;28;20050;-84
2022/12/03 07:47:18;;;;;;;78.07;34.70;;;2.40;99.90;;;;;;6226339;28;20052;-83
2022/12/03 07:50:20;;;;;;;66.28;27.77;;;2.40;99.90;;;;;;6228428;28;20050;-84
2022/12/03 07:53:21;;;;;;;70.68;26.30;;;2.50;99.90;;;;;;6227566;28;20034;-84
2022/12/03 07:56:23;;;;;;;69.93;30.67;;;2.50;99.90;;;;;;6227229;28;20049;-85
2022/12/03 07:59:25;;;;;;;78.00;31.45;;;2.50;99.90;;;;;;6227147;28;20054;-83
2022/12/03 08:02:28;;;;;;;76.38;34.65;;;2.60;99.90;;;;;;6226128;28;20042;-84
2022/12/03 08:08:46;;;;;;;147.15;67.97;;;2.70;99.90;;;;;;6233754;28;20046;-86
2022/12/03 08:11:48;;;;;;;106.32;42.28;;;2.80;99.90;;;;;;6230299;28;20125;-85
2022/12/03 08:14:50;;;;;;;101.35;46.85;;;2.90;99.90;;;;;;6231837;28;20118;-87
2022/12/03 08:17:55;;;;;;;89.30;42.67;;;3.00;99.90;;;;;;6256761;28;20136;-86
2022/12/03 08:20:57;;;;;;;84.40;49.17;;;3.00;99.90;;;;;;6257751;28;20049;-86
2022/12/03 08:24:05;;;;;;;89.47;38.70;;;3.10;99.90;;;;;;6258053;28;20097;-85
2022/12/03 08:27:16;;;;;;;84.80;36.53;;;3.10;99.90;;;;;;6209382;28;20097;-87
2022/12/03 08:30:19;;;;;;;80.40;32.97;;;3.20;99.90;;;;;;6233361;28;20054;-85
2022/12/03 08:33:27;;;;;;;73.10;32.13;;;3.20;99.90;;;;;;6216021;28;20062;-88
2022/12/03 08:36:30;;;;;;;;;;;3.30;99.90;;;;;;6224482;28;20110;-87
2022/12/03 08:39:34;;;;;;;74.43;32.92;;;3.30;99.90;;;;;;6236886;28;20383;-85
2022/12/03 08:42:42;;;;;;;73.97;33.92;;;3.40;99.90;;;;;;6236595;28;20404;-87
2022/12/03 08:45:45;;;;;;;70.93;35.03;;;3.30;99.90;;;;;;6216776;28;20060;-87
2022/12/03 08:48:48;;;;;;;80.30;31.63;;;3.40;99.90;;;;;;6224796;28;20614;-87
2022/12/03 08:51:56;;;;;;;73.40;33.53;;;3.40;99.90;;;;;;6245353;28;20068;-86
2022/12/03 08:54:59;;;;;;;69.47;33.95;;;3.50;99.90;;;;;;6279954;28;20068;-87
2022/12/03 08:58:16;;;;;;;79.15;35.80;;;3.50;99.90;;;;;;6262335;28;20109;-87
2022/12/03 09:01:29;;;;;;;80.63;32.55;;;3.60;99.90;;;;;;6253085;28;20052;-85
2022/12/03 09:04:38;;;;;;;65.90;30.48;;;3.60;99.90;;;;;;6234886;28;20099;-86
2022/12/03 09:07:40;;;;;;;71.75;29.92;;;3.70;99.90;;;;;;6234212;28;20045;-86
2022/12/03 09:10:42;;;;;;;75.95;30.52;;;3.80;99.90;;;;;;6233820;28;20646;-87
2022/12/03 09:13:43;;;;;;;75.72;29.95;;;3.80;99.90;;;;;;6233383;28;20046;-85
2022/12/03 09:16:45;;;;;;;72.65;30.23;;;3.90;99.90;;;;;;6234336;28;20057;-86
2022/12/03 09:19:48;;;;;;;74.03;29.75;;;4.00;99.90;;;;;;6233625;28;20132;-85
2022/12/03 09:22:50;;;;;;;64.05;28.73;;;4.10;99.90;;;;;;6243213;28;20038;-87
2022/12/03 09:25:52;;;;;;;60.72;26.80;;;4.10;99.90;;;;;;6237437;28;20112;-86
2022/12/03 09:28:54;;;;;;;69.25;32.70;;;4.10;99.90;;;;;;6247192;28;20586;-86
2022/12/03 09:31:55;;;;;;;71.75;33.40;;;4.20;99.90;;;;;;6241259;28;20063;-85
2022/12/03 09:35:01;;;;;;;60.40;27.67;;;4.20;99.90;;;;;;6270480;28;20108;-88
2022/12/03 09:38:03;;;;;;;68.85;31.63;;;4.30;99.90;;;;;;6260073;28;20041;-87
2022/12/03 09:41:05;;;;;;;65.90;30.35;;;4.40;99.90;;;;;;6257617;28;20053;-86
2022/12/03 09:44:06;;;;;;;51.83;27.48;;;4.40;99.90;;;;;;6275629;28;20042;-86
2022/12/03 09:47:09;;;;;;;53.28;28.40;;;4.50;99.90;;;;;;6229917;28;20105;-86
2022/12/03 09:50:15;;;;;;;59.55;28.00;;;4.70;99.90;;;;;;6259739;28;20084;-86
2022/12/03 09:53:20;;;;;;;63.05;29.85;;;4.90;99.90;;;;;;6276001;28;20080;-86
2022/12/03 09:56:23;;;;;;;53.45;26.42;;;5.00;99.90;;;;;;6286759;28;20818;-85
2022/12/03 09:59:30;;;;;;;60.13;31.65;;;5.20;99.90;;;;;;6280849;28;20664;-87
2022/12/03 10:02:33;;;;;;;56.00;30.98;;;5.50;99.90;;;;;;6279578;28;20049;-88
2022/12/03 10:05:36;;;;;;;49.58;26.02;;;5.80;99.90;;;;;;6260957;28;20794;-87
2022/12/03 10:08:39;;;;;;;46.20;25.15;;;5.80;99.90;;;;;;6259006;28;20072;-85
2022/12/03 10:11:41;;;;;;;52.75;26.05;;;5.90;99.90;;;;;;6245668;28;20053;-85
2022/12/03 10:14:43;;;;;;;46.40;25.10;;;6.10;99.90;;;;;;6240451;28;20506;-86
2022/12/03 10:17:47;;;;;;;46.50;24.63;;;6.20;99.90;;;;;;6256261;28;20049;-87
2022/12/03 10:20:51;;;;;;;46.10;23.20;;;6.00;99.90;;;;;;6255344;28;20109;-86
2022/12/03 10:24:18;;;;;;;42.88;21.40;;;5.80;99.90;;;;;;6249027;28;20157;-87
2022/12/03 10:27:23;;;;;;;45.92;23.38;;;5.60;99.90;;;;;;6224605;28;20060;-86
2022/12/03 10:30:27;;;;;;;44.55;25.00;;;5.50;99.90;;;;;;6231578;28;20078;-84
2022/12/03 10:33:31;;;;;;;44.47;23.70;;;5.40;99.90;;;;;;6229823;28;20443;-86
2022/12/03 10:36:34;;;;;;;46.53;23.50;;;5.50;99.90;;;;;;6230605;28;20076;-83
2022/12/03 10:39:53;;;;;;;44.33;24.40;;;5.40;99.90;;;;;;6230017;28;20111;-85
2022/12/03 10:43:14;;;;;;;53.28;24.60;;;5.40;99.90;;;;;;6232841;28;20412;-86
2022/12/03 10:46:18;;;;;;;39.55;23.13;;;5.40;99.90;;;;;;6233043;28;20114;-86
2022/12/03 10:49:20;;;;;;;53.08;25.25;;;5.50;99.90;;;;;;6249924;28;20056;-86
2022/12/03 10:52:23;;;;;;;49.67;28.45;;;5.40;99.90;;;;;;6258572;28;20041;-86
2022/12/03 10:55:27;;;;;;;42.25;23.65;;;5.40;99.90;;;;;;6255997;28;20085;-86
2022/12/03 10:58:35;;;;;;;45.22;21.52;;;5.40;99.90;;;;;;6236314;28;20050;-85
2022/12/03 11:01:37;;;;;;;51.20;28.10;;;5.40;99.90;;;;;;6255585;28;20080;-86
2022/12/03 11:04:40;;;;;;;53.10;27.00;;;5.30;99.90;;;;;;6259716;28;20101;-86
2022/12/03 11:07:44;;;;;;;50.72;25.65;;;5.40;99.90;;;;;;6260179;28;20193;-88
2022/12/03 11:10:56;;;;;;;51.13;27.23;;;5.70;99.90;;;;;;6257038;28;20079;-87
2022/12/03 11:14:00;;;;;;;43.10;25.83;;;5.90;99.90;;;;;;6263699;28;20160;-89
2022/12/03 11:17:10;;;;;;;45.53;24.58;;;5.90;99.90;;;;;;6263572;28;20122;-87
2022/12/03 11:24:21;;;;;;;58.92;29.60;;;5.80;99.90;;;;;;6257204;28;20049;-88
2022/12/03 11:27:23;;;;;;;;;;;5.80;99.90;;;;;;6225206;28;20090;-87
2022/12/03 11:30:57;;;;;;;45.88;25.45;;;5.70;99.90;;;;;;6205132;28;20008;-86
2022/12/03 11:34:49;;;;;;;106.22;48.97;;;5.80;99.90;;;;;;6213040;28;20042;-86
2022/12/03 11:37:51;;;;;;;47.90;28.80;;;5.70;99.90;;;;;;6209428;28;20054;-86
2022/12/03 11:41:10;;;;;;;59.83;36.17;;;5.70;99.90;;;;;;6216557;28;20042;-86
2022/12/03 11:44:32;;;;;;;46.28;24.00;;;5.70;99.90;;;;;;6252845;28;20573;-86
2022/12/03 11:47:38;;;;;;;45.78;24.27;;;5.70;99.90;;;;;;6237105;28;20052;-86
2022/12/03 11:50:42;;;;;;;50.08;23.90;;;5.70;99.90;;;;;;6238318;28;20045;-87
2022/12/03 12:01:36;;;;;;;53.63;26.90;;;5.70;99.90;;;;;;6125895;29;20031;-82
2022/12/03 12:04:49;;;;;;;52.42;25.50;;;5.70;99.90;;;;;;6116330;28;20059;-85
2022/12/03 12:07:51;;;;;;;48.08;23.75;;;5.70;99.90;;;;;;6173303;28;20050;-83
2022/12/03 12:11:21;;;;;;;45.15;24.98;;;5.70;99.90;;;;;;6191553;28;20050;-83
2022/12/03 12:14:29;;;;;;;55.90;24.02;;;5.70;99.90;;;;;;6173228;28;20042;-83
2022/12/03 12:25:50;;;;;;;39.13;17.70;;;5.70;99.90;;;;;;6158021;28;20050;-84
2022/12/03 12:28:55;;;;;;;43.85;22.13;;;5.70;99.90;;;;;;6165036;28;20054;-84
2022/12/03 12:32:28;;;;;;;48.80;23.77;;;5.70;99.90;;;;;;6158233;28;20058;-84
2022/12/03 12:39:43;;;;;;;35.13;20.98;;;5.70;99.90;;;;;;6185991;28;20085;-85
2022/12/03 12:43:21;;;;;;;44.22;24.23;;;5.70;99.90;;;;;;6199417;28;20053;-85
2022/12/03 12:49:50;;;;;;;43.15;24.58;;;5.80;99.90;;;;;;6156202;28;20531;-84
2022/12/03 12:52:58;;;;;;;44.53;22.98;;;5.80;99.90;;;;;;6155256;28;20514;-83
2022/12/03 12:56:05;;;;;;;;;;;5.90;99.90;;;;;;6159004;28;20130;-84
2022/12/03 13:02:55;;;;;;;47.95;29.52;;;5.90;99.90;;;;;;6160597;28;20524;-84
2022/12/03 13:05:57;;;;;;;41.53;21.35;;;6.00;99.90;;;;;;6153734;28;20062;-84
2022/12/03 13:09:07;;;;;;;35.45;19.35;;;6.00;99.90;;;;;;6133028;28;20570;-86
2022/12/03 13:12:21;;;;;;;37.30;21.63;;;6.00;99.90;;;;;;6179988;28;20053;-84
2022/12/03 13:15:48;;;;;;;29.52;16.45;;;5.90;99.90;;;;;;6190170;28;20047;-85
2022/12/03 13:19:03;;;;;;;30.35;18.33;;;6.00;99.90;;;;;;6198509;28;20051;-85
2022/12/03 13:22:32;;;;;;;30.30;15.57;;;5.90;99.90;;;;;;6157814;28;20133;-84
2022/12/03 13:25:49;;;;;;;25.88;15.95;;;5.90;99.90;;;;;;6158441;28;20043;-85
2022/12/03 13:28:55;;;;;;;28.52;15.07;;;5.90;99.90;;;;;;6182047;28;20109;-85
2022/12/03 13:35:30;;;;;;;26.77;16.85;;;5.70;99.90;;;;;;6188693;28;20047;-87
2022/12/03 13:38:53;;;;;;;23.67;14.23;;;5.80;99.90;;;;;;6189058;28;20051;-83
2022/12/03 13:49:20;;;;;;;29.60;17.17;;;5.70;99.90;;;;;;6181462;28;20145;-85
2022/12/03 13:52:27;;;;;;;33.80;19.88;;;5.70;99.90;;;;;;6170604;28;20055;-85
2022/12/03 13:55:31;;;;;;;36.85;20.35;;;5.60;99.90;;;;;;6177460;28;20118;-84
2022/12/03 13:58:44;;;;;;;30.40;18.05;;;5.60;99.90;;;;;;6179066;28;20050;-84
2022/12/03 14:01:57;;;;;;;41.90;20.02;;;5.50;99.90;;;;;;6179144;28;20047;-83
2022/12/03 14:04:59;;;;;;;29.23;15.85;;;5.50;99.90;;;;;;6179203;28;20371;-83
2022/12/03 14:08:01;;;;;;;25.40;17.55;;;5.50;99.90;;;;;;6178552;28;20050;-83
2022/12/03 14:11:03;;;;;;;32.35;15.57;;;5.40;99.90;;;;;;6179570;28;20054;-83
2022/12/03 14:14:06;;;;;;;27.50;16.92;;;5.40;99.90;;;;;;6192563;28;20038;-82
2022/12/03 14:17:10;;;;;;;27.13;15.38;;;5.30;99.90;;;;;;6200966;28;20057;-83
2022/12/03 14:20:12;;;;;;;25.77;15.13;;;5.30;99.90;;;;;;6202746;28;20066;-82
2022/12/03 14:23:14;;;;;;;27.50;15.82;;;5.30;99.90;;;;;;6203399;28;20528;-81
2022/12/03 14:26:16;;;;;;;26.08;16.10;;;5.30;99.90;;;;;;6204408;28;20100;-83
2022/12/03 14:29:19;;;;;;;31.40;18.08;;;5.20;99.90;;;;;;6190523;28;20072;-82
2022/12/03 14:32:21;;;;;;;27.67;15.98;;;5.30;99.90;;;;;;6178840;28;20046;-82
2022/12/03 14:35:22;;;;;;;28.33;17.95;;;5.20;99.90;;;;;;6179192;28;20066;-83
2022/12/03 14:38:24;;;;;;;30.27;17.35;;;5.20;99.90;;;;;;6179000;28;20604;-82
2022/12/03 14:44:48;;;;;;;27.98;15.63;;;5.10;99.90;;;;;;6195035;28;20050;-82
2022/12/03 14:47:49;;;;;;;28.85;16.45;;;5.00;99.90;;;;;;6202676;28;20479;-83
2022/12/03 14:50:51;;;;;;;28.52;15.95;;;4.90;99.90;;;;;;6203032;28;20543;-82
2022/12/03 14:53:53;;;;;;;28.88;15.10;;;4.90;99.90;;;;;;6203692;28;20048;-82
2022/12/03 14:56:55;;;;;;;31.58;18.95;;;4.90;99.90;;;;;;6201888;28;20635;-81
2022/12/03 14:59:58;;;;;;;25.92;15.82;;;4.90;99.90;;;;;;6200683;28;20093;-82
2022/12/03 15:02:59;;;;;;;30.23;18.55;;;4.90;99.90;;;;;;6205148;28;20054;-82
2022/12/03 15:06:02;;;;;;;29.67;16.25;;;4.80;99.90;;;;;;6201967;28;20053;-82
2022/12/03 15:09:04;;;;;;;28.40;16.40;;;4.80;99.90;;;;;;6182514;28;20564;-82
2022/12/03 15:12:10;;;;;;;29.33;15.43;;;4.80;99.90;;;;;;6189971;28;20050;-82
2022/12/03 15:15:13;;;;;;;30.58;15.27;;;4.80;99.90;;;;;;6182551;28;20042;-82
2022/12/03 15:18:15;;;;;;;21.58;13.55;;;4.80;99.90;;;;;;6183900;28;20409;-85
2022/12/03 15:21:17;;;;;;;30.42;16.23;;;4.80;99.90;;;;;;6184348;28;20130;-83
2022/12/03 15:24:18;;;;;;;32.22;17.45;;;4.70;99.90;;;;;;6183590;28;20047;-81
2022/12/03 15:27:25;;;;;;;34.17;16.27;;;4.70;99.90;;;;;;6184709;28;20078;-82
2022/12/03 15:30:28;;;;;;;30.50;17.25;;;4.70;99.90;;;;;;6187352;28;20053;-82
2022/12/03 15:33:30;;;;;;;33.80;18.30;;;4.70;99.90;;;;;;6186631;28;20050;-82
2022/12/03 15:36:31;;;;;;;30.27;17.05;;;4.70;99.90;;;;;;6189627;28;20066;-83
2022/12/03 15:39:35;;;;;;;62.30;30.92;;;4.70;99.90;;;;;;6186686;28;20512;-81
2022/12/03 15:42:57;;;;;;;27.17;18.25;;;4.60;99.90;;;;;;6194625;28;20046;-82
2022/12/03 15:46:24;;;;;;;30.55;19.13;;;4.80;99.90;;;;;;6193850;28;20046;-83
2022/12/03 15:49:40;;;;;;;29.58;19.33;;;4.70;99.90;;;;;;6185816;28;20505;-83
2022/12/03 15:52:48;;;;;;;30.38;19.65;;;4.70;99.90;;;;;;6186382;28;20055;-82
2022/12/03 15:59:19;;;;;;;32.25;17.52;;;4.60;99.90;;;;;;6190370;28;19922;-82
2022/12/03 16:02:22;;;;;;;29.42;16.27;;;4.60;99.90;;;;;;6193691;28;20047;-82
2022/12/03 16:05:24;;;;;;;31.52;17.90;;;4.60;99.90;;;;;;6186306;28;20051;-81
2022/12/03 16:08:30;;;;;;;35.30;18.30;;;4.60;99.90;;;;;;6188714;28;20130;-82
2022/12/03 16:15:48;;;;;;;32.50;17.30;;;4.50;99.90;;;;;;6208882;28;20049;-83
2022/12/03 16:23:12;;;;;;;31.13;16.33;;;4.50;99.90;;;;;;6211780;28;20054;-83
2022/12/03 16:26:17;;;;;;;34.78;19.15;;;4.50;99.90;;;;;;6216438;28;20051;-84
2022/12/03 16:33:38;;;;;;;31.42;18.63;;;4.40;99.90;;;;;;6196584;28;20097;-83
2022/12/03 16:36:51;;;;;;;33.90;18.00;;;4.40;99.90;;;;;;6188058;28;20054;-83
2022/12/03 16:47:38;;;;;;;37.47;19.90;;;4.40;99.90;;;;;;6189995;28;20057;-80
2022/12/03 16:50:45;;;;;;;31.90;19.52;;;4.50;99.90;;;;;;6214475;28;20057;-82
2022/12/03 16:54:06;;;;;;;30.30;19.20;;;4.40;99.90;;;;;;6201936;28;20050;-84
2022/12/03 16:57:14;;;;;;;37.33;20.70;;;4.50;99.90;;;;;;6210600;28;20057;-82
2022/12/03 17:00:33;;;;;;;39.85;23.45;;;4.50;99.90;;;;;;6205503;28;20049;-83
2022/12/03 17:03:35;;;;;;;38.67;19.38;;;4.40;99.90;;;;;;6214210;28;20046;-82
2022/12/03 17:06:39;;;;;;;35.60;18.50;;;4.50;99.90;;;;;;6207813;28;20125;-83
2022/12/03 17:09:41;;;;;;;36.92;20.00;;;4.50;99.90;;;;;;6212772;28;20129;-83
2022/12/03 17:12:44;;;;;;;34.40;16.98;;;4.40;99.90;;;;;;6202764;28;20047;-82
2022/12/03 17:15:46;;;;;;;35.45;17.02;;;4.40;99.90;;;;;;6192877;28;20048;-81
2022/12/03 17:18:48;;;;;;;35.45;19.02;;;4.40;99.90;;;;;;6144501;29;20082;-81
2022/12/03 17:21:49;;;;;;;38.58;18.80;;;4.40;99.90;;;;;;6172334;28;20159;-81